sensor_id;sensor_type;location;lat;lon;timestamp;temperature;humidity
1948;DHT22;974;52.400;9.818;2022-09-27T00:02:06;10.80;99.90
1948;DHT22;974;52.400;9.818;2022-09-27T00:04:32;10.80;99.90
1948;DHT22;974;52.400;9.818;2022-09-27T00:06:57;10.80;99.90
1948;DHT22;974;52.400;9.818;2022-09-27T00:09:23;10.80;99.90
1948;DHT22;974;52.400;9.818;2022-09-27T00:11:48;10.80;99.90
1948;DHT22;974;52.400;9.818;2022-09-27T00:14:15;10.80;99.90
1948;DHT22;974;52.400;9.818;2022-09-27T00:16:42;10.80;99.90
1948;DHT22;974;52.400;9.818;2022-09-27T00:19:13;10.80;99.90
1948;DHT22;974;52.400;9.818;2022-09-27T00:21:40;10.80;99.90
1948;DHT22;974;52.400;9.818;2022-09-27T00:24:08;10.80;99.90
1948;DHT22;974;52.400;9.818;2022-09-27T00:26:35;10.80;99.90
1948;DHT22;974;52.400;9.818;2022-09-27T00:29:01;10.80;99.90
1948;DHT22;974;52.400;9.818;2022-09-27T00:31:28;10.80;99.90
1948;DHT22;974;52.400;9.818;2022-09-27T00:33:56;10.80;99.90
1948;DHT22;974;52.400;9.818;2022-09-27T00:36:23;10.80;99.90
1948;DHT22;974;52.400;9.818;2022-09-27T00:38:50;10.80;99.90
1948;DHT22;974;52.400;9.818;2022-09-27T00:41:21;10.80;99.90
1948;DHT22;974;52.400;9.818;2022-09-27T00:43:50;10.90;99.90
1948;DHT22;974;52.400;9.818;2022-09-27T00:46:34;10.90;99.90
1948;DHT22;974;52.400;9.818;2022-09-27T00:49:22;10.90;99.90
1948;DHT22;974;52.400;9.818;2022-09-27T00:51:58;10.90;99.90
1948;DHT22;974;52.400;9.818;2022-09-27T00:54:27;10.90;99.90
1948;DHT22;974;52.400;9.818;2022-09-27T00:56:53;10.80;99.90
1948;DHT22;974;52.400;9.818;2022-09-27T01:01:59;10.70;99.90
1948;DHT22;974;52.400;9.818;2022-09-27T01:04:27;10.80;99.90
1948;DHT22;974;52.400;9.818;2022-09-27T01:06:54;10.80;99.90
1948;DHT22;974;52.400;9.818;2022-09-27T01:09:20;10.90;99.90
1948;DHT22;974;52.400;9.818;2022-09-27T01:17:17;10.80;99.90
1948;DHT22;974;52.400;9.818;2022-09-27T01:25:54;10.80;99.90
1948;DHT22;974;52.400;9.818;2022-09-27T01:31:23;10.80;99.90
1948;DHT22;974;52.400;9.818;2022-09-27T01:34:02;10.80;99.90
1948;DHT22;974;52.400;9.818;2022-09-27T01:36:47;10.80;99.90
1948;DHT22;974;52.400;9.818;2022-09-27T01:42:13;10.80;99.90
1948;DHT22;974;52.400;9.818;2022-09-27T01:44:47;10.90;99.90
1948;DHT22;974;52.400;9.818;2022-09-27T01:47:21;10.90;99.90
1948;DHT22;974;52.400;9.818;2022-09-27T01:50:10;10.90;99.90
1948;DHT22;974;52.400;9.818;2022-09-27T01:52:53;10.90;99.90
1948;DHT22;974;52.400;9.818;2022-09-27T01:55:22;10.90;99.90
1948;DHT22;974;52.400;9.818;2022-09-27T01:57:56;10.90;99.90
1948;DHT22;974;52.400;9.818;2022-09-27T02:00:24;10.90;99.90
1948;DHT22;974;52.400;9.818;2022-09-27T02:03:00;10.90;99.90
1948;DHT22;974;52.400;9.818;2022-09-27T02:05:35;10.90;99.90
1948;DHT22;974;52.400;9.818;2022-09-27T02:08:06;10.80;99.90
1948;DHT22;974;52.400;9.818;2022-09-27T02:10:39;10.80;99.90
1948;DHT22;974;52.400;9.818;2022-09-27T02:13:29;10.80;99.90
1948;DHT22;974;52.400;9.818;2022-09-27T02:19:05;10.80;99.90
1948;DHT22;974;52.400;9.818;2022-09-27T02:21:41;10.80;99.90
1948;DHT22;974;52.400;9.818;2022-09-27T02:24:12;10.80;99.90
1948;DHT22;974;52.400;9.818;2022-09-27T02:26:44;10.90;99.90
1948;DHT22;974;52.400;9.818;2022-09-27T02:29:18;10.80;99.90
1948;DHT22;974;52.400;9.818;2022-09-27T02:31:45;10.80;99.90
1948;DHT22;974;52.400;9.818;2022-09-27T02:36:43;10.80;99.90
1948;DHT22;974;52.400;9.818;2022-09-27T02:39:09;10.80;99.90
1948;DHT22;974;52.400;9.818;2022-09-27T02:41:34;10.80;99.90
1948;DHT22;974;52.400;9.818;2022-09-27T02:44:08;10.80;99.90
1948;DHT22;974;52.400;9.818;2022-09-27T02:47:07;10.80;99.90
1948;DHT22;974;52.400;9.818;2022-09-27T02:55:29;10.80;99.90
1948;DHT22;974;52.400;9.818;2022-09-27T03:01:12;10.80;99.90
1948;DHT22;974;52.400;9.818;2022-09-27T03:03:45;10.70;99.90
1948;DHT22;974;52.400;9.818;2022-09-27T03:06:17;10.70;99.90
1948;DHT22;974;52.400;9.818;2022-09-27T03:08:45;10.80;99.90
1948;DHT22;974;52.400;9.818;2022-09-27T03:11:11;10.80;99.90
1948;DHT22;974;52.400;9.818;2022-09-27T03:13:36;10.80;99.90
1948;DHT22;974;52.400;9.818;2022-09-27T03:16:04;10.80;99.90
1948;DHT22;974;52.400;9.818;2022-09-27T03:18:31;10.90;99.90
1948;DHT22;974;52.400;9.818;2022-09-27T03:20:56;10.80;99.90
1948;DHT22;974;52.400;9.818;2022-09-27T03:23:22;10.80;99.90
1948;DHT22;974;52.400;9.818;2022-09-27T03:25:48;10.80;99.90
1948;DHT22;974;52.400;9.818;2022-09-27T03:28:14;10.80;99.90
1948;DHT22;974;52.400;9.818;2022-09-27T03:30:40;10.80;99.90
1948;DHT22;974;52.400;9.818;2022-09-27T03:33:06;10.80;99.90
1948;DHT22;974;52.400;9.818;2022-09-27T03:35:34;10.80;99.90
1948;DHT22;974;52.400;9.818;2022-09-27T03:37:59;10.80;99.90
1948;DHT22;974;52.400;9.818;2022-09-27T03:40:25;10.80;99.90
1948;DHT22;974;52.400;9.818;2022-09-27T03:42:50;10.80;99.90
1948;DHT22;974;52.400;9.818;2022-09-27T03:45:16;10.70;99.90
1948;DHT22;974;52.400;9.818;2022-09-27T03:47:42;10.80;99.90
1948;DHT22;974;52.400;9.818;2022-09-27T03:50:09;10.70;99.90
1948;DHT22;974;52.400;9.818;2022-09-27T03:52:35;10.70;99.90
1948;DHT22;974;52.400;9.818;2022-09-27T03:55:01;10.60;99.90
1948;DHT22;974;52.400;9.818;2022-09-27T03:57:27;10.70;99.90
1948;DHT22;974;52.400;9.818;2022-09-27T03:59:55;10.70;99.90
1948;DHT22;974;52.400;9.818;2022-09-27T04:02:20;10.70;99.90
1948;DHT22;974;52.400;9.818;2022-09-27T04:04:46;10.70;99.90
1948;DHT22;974;52.400;9.818;2022-09-27T04:07:12;10.60;99.90
1948;DHT22;974;52.400;9.818;2022-09-27T04:09:37;10.60;99.90
1948;DHT22;974;52.400;9.818;2022-09-27T04:12:03;10.60;99.90
1948;DHT22;974;52.400;9.818;2022-09-27T04:14:29;10.50;99.90
1948;DHT22;974;52.400;9.818;2022-09-27T04:16:55;10.40;99.90
1948;DHT22;974;52.400;9.818;2022-09-27T04:19:20;10.40;99.90
1948;DHT22;974;52.400;9.818;2022-09-27T04:21:46;10.30;99.90
1948;DHT22;974;52.400;9.818;2022-09-27T04:24:11;10.20;99.90
1948;DHT22;974;52.400;9.818;2022-09-27T04:26:37;10.20;99.90
1948;DHT22;974;52.400;9.818;2022-09-27T04:29:04;10.10;99.90
1948;DHT22;974;52.400;9.818;2022-09-27T04:31:30;10.10;99.90
1948;DHT22;974;52.400;9.818;2022-09-27T04:33:55;10.10;99.90
1948;DHT22;974;52.400;9.818;2022-09-27T04:36:22;10.10;99.90
1948;DHT22;974;52.400;9.818;2022-09-27T04:38:55;10.20;99.90
1948;DHT22;974;52.400;9.818;2022-09-27T04:41:22;10.20;99.90
1948;DHT22;974;52.400;9.818;2022-09-27T04:43:49;10.20;99.90
1948;DHT22;974;52.400;9.818;2022-09-27T04:46:15;10.20;99.90
1948;DHT22;974;52.400;9.818;2022-09-27T04:48:40;10.20;99.90
1948;DHT22;974;52.400;9.818;2022-09-27T04:51:06;10.10;99.90
1948;DHT22;974;52.400;9.818;2022-09-27T04:53:32;10.20;99.90
1948;DHT22;974;52.400;9.818;2022-09-27T04:55:58;10.20;99.90
1948;DHT22;974;52.400;9.818;2022-09-27T04:58:27;10.20;99.90
1948;DHT22;974;52.400;9.818;2022-09-27T05:00:54;10.10;99.90
1948;DHT22;974;52.400;9.818;2022-09-27T05:03:20;10.10;99.90
1948;DHT22;974;52.400;9.818;2022-09-27T05:05:46;10.10;99.90
1948;DHT22;974;52.400;9.818;2022-09-27T05:08:12;10.20;99.90
1948;DHT22;974;52.400;9.818;2022-09-27T05:10:37;10.10;99.90
1948;DHT22;974;52.400;9.818;2022-09-27T05:13:03;10.20;99.90
1948;DHT22;974;52.400;9.818;2022-09-27T05:15:28;10.10;99.90
1948;DHT22;974;52.400;9.818;2022-09-27T05:17:54;10.20;99.90
1948;DHT22;974;52.400;9.818;2022-09-27T05:20:20;10.20;99.90
1948;DHT22;974;52.400;9.818;2022-09-27T05:22:46;10.20;99.90
1948;DHT22;974;52.400;9.818;2022-09-27T05:25:11;10.10;99.90
1948;DHT22;974;52.400;9.818;2022-09-27T05:27:37;10.10;99.90
1948;DHT22;974;52.400;9.818;2022-09-27T05:30:03;10.10;99.90
1948;DHT22;974;52.400;9.818;2022-09-27T05:32:30;10.10;99.90
1948;DHT22;974;52.400;9.818;2022-09-27T05:34:55;10.20;99.90
1948;DHT22;974;52.400;9.818;2022-09-27T05:37:21;10.20;99.90
1948;DHT22;974;52.400;9.818;2022-09-27T05:39:47;10.20;99.90
1948;DHT22;974;52.400;9.818;2022-09-27T05:42:14;10.20;99.90
1948;DHT22;974;52.400;9.818;2022-09-27T05:44:40;10.10;99.90
1948;DHT22;974;52.400;9.818;2022-09-27T05:47:06;10.10;99.90
1948;DHT22;974;52.400;9.818;2022-09-27T05:49:32;10.20;99.90
1948;DHT22;974;52.400;9.818;2022-09-27T05:51:58;10.20;99.90
1948;DHT22;974;52.400;9.818;2022-09-27T05:54:24;10.10;99.90
1948;DHT22;974;52.400;9.818;2022-09-27T05:56:54;10.20;99.90
1948;DHT22;974;52.400;9.818;2022-09-27T05:59:23;10.10;99.90
1948;DHT22;974;52.400;9.818;2022-09-27T06:01:48;10.10;99.90
1948;DHT22;974;52.400;9.818;2022-09-27T06:04:15;10.20;99.90
1948;DHT22;974;52.400;9.818;2022-09-27T06:06:40;10.20;99.90
1948;DHT22;974;52.400;9.818;2022-09-27T06:09:09;10.30;99.90
1948;DHT22;974;52.400;9.818;2022-09-27T06:11:35;10.20;99.90
1948;DHT22;974;52.400;9.818;2022-09-27T06:14:00;10.20;99.90
1948;DHT22;974;52.400;9.818;2022-09-27T06:16:26;10.30;99.90
1948;DHT22;974;52.400;9.818;2022-09-27T06:18:51;10.20;99.90
1948;DHT22;974;52.400;9.818;2022-09-27T06:21:18;10.20;99.90
1948;DHT22;974;52.400;9.818;2022-09-27T06:23:44;10.30;99.90
1948;DHT22;974;52.400;9.818;2022-09-27T06:26:10;10.30;99.90
1948;DHT22;974;52.400;9.818;2022-09-27T06:28:36;10.30;99.90
1948;DHT22;974;52.400;9.818;2022-09-27T06:31:04;10.30;99.90
1948;DHT22;974;52.400;9.818;2022-09-27T06:33:31;10.20;99.90
1948;DHT22;974;52.400;9.818;2022-09-27T06:36:00;10.20;99.90
1948;DHT22;974;52.400;9.818;2022-09-27T06:38:27;10.10;99.90
1948;DHT22;974;52.400;9.818;2022-09-27T06:40:52;10.10;99.90
1948;DHT22;974;52.400;9.818;2022-09-27T06:43:19;10.20;99.90
1948;DHT22;974;52.400;9.818;2022-09-27T06:45:45;10.10;99.90
1948;DHT22;974;52.400;9.818;2022-09-27T06:48:12;10.20;99.90
1948;DHT22;974;52.400;9.818;2022-09-27T06:50:40;10.20;99.90
1948;DHT22;974;52.400;9.818;2022-09-27T06:53:06;10.20;99.90
1948;DHT22;974;52.400;9.818;2022-09-27T06:55:33;10.10;99.90
1948;DHT22;974;52.400;9.818;2022-09-27T06:58:00;10.10;99.90
1948;DHT22;974;52.400;9.818;2022-09-27T07:00:48;10.00;99.90
1948;DHT22;974;52.400;9.818;2022-09-27T07:03:14;10.10;99.90
1948;DHT22;974;52.400;9.818;2022-09-27T07:05:40;10.10;99.90
1948;DHT22;974;52.400;9.818;2022-09-27T07:08:11;10.10;99.90
1948;DHT22;974;52.400;9.818;2022-09-27T07:10:38;10.10;99.90
1948;DHT22;974;52.400;9.818;2022-09-27T07:13:08;10.10;99.90
1948;DHT22;974;52.400;9.818;2022-09-27T07:15:35;10.20;99.90
1948;DHT22;974;52.400;9.818;2022-09-27T07:18:03;10.10;99.90
1948;DHT22;974;52.400;9.818;2022-09-27T07:20:28;10.20;99.90
1948;DHT22;974;52.400;9.818;2022-09-27T07:22:54;10.30;99.90
1948;DHT22;974;52.400;9.818;2022-09-27T07:25:21;10.20;99.90
1948;DHT22;974;52.400;9.818;2022-09-27T07:27:46;10.20;99.90
1948;DHT22;974;52.400;9.818;2022-09-27T07:30:13;10.20;99.90
1948;DHT22;974;52.400;9.818;2022-09-27T07:32:39;10.30;99.90
1948;DHT22;974;52.400;9.818;2022-09-27T07:35:06;10.20;99.90
1948;DHT22;974;52.400;9.818;2022-09-27T07:37:33;10.20;99.90
1948;DHT22;974;52.400;9.818;2022-09-27T07:39:59;10.20;99.90
1948;DHT22;974;52.400;9.818;2022-09-27T07:42:26;10.30;99.90
1948;DHT22;974;52.400;9.818;2022-09-27T07:44:53;10.30;99.90
1948;DHT22;974;52.400;9.818;2022-09-27T07:47:19;10.20;99.90
1948;DHT22;974;52.400;9.818;2022-09-27T07:49:44;10.30;99.90
1948;DHT22;974;52.400;9.818;2022-09-27T07:52:10;10.30;99.90
1948;DHT22;974;52.400;9.818;2022-09-27T07:54:36;10.30;99.90
1948;DHT22;974;52.400;9.818;2022-09-27T07:57:02;10.20;99.90
1948;DHT22;974;52.400;9.818;2022-09-27T07:59:28;10.20;99.90
1948;DHT22;974;52.400;9.818;2022-09-27T08:01:53;10.20;99.90
1948;DHT22;974;52.400;9.818;2022-09-27T08:04:20;10.20;99.90
1948;DHT22;974;52.400;9.818;2022-09-27T08:06:46;10.20;99.90
1948;DHT22;974;52.400;9.818;2022-09-27T08:09:11;10.10;99.90
1948;DHT22;974;52.400;9.818;2022-09-27T08:11:37;10.20;99.90
1948;DHT22;974;52.400;9.818;2022-09-27T08:14:03;10.20;99.90
1948;DHT22;974;52.400;9.818;2022-09-27T08:16:34;10.10;99.90
1948;DHT22;974;52.400;9.818;2022-09-27T08:18:59;10.10;99.90
1948;DHT22;974;52.400;9.818;2022-09-27T08:21:25;10.10;99.90
1948;DHT22;974;52.400;9.818;2022-09-27T08:23:50;10.10;99.90
1948;DHT22;974;52.400;9.818;2022-09-27T08:26:16;10.00;99.90
1948;DHT22;974;52.400;9.818;2022-09-27T08:28:42;10.00;99.90
1948;DHT22;974;52.400;9.818;2022-09-27T08:31:07;10.10;99.90
1948;DHT22;974;52.400;9.818;2022-09-27T08:33:33;10.00;99.90
1948;DHT22;974;52.400;9.818;2022-09-27T08:35:59;10.10;99.90
1948;DHT22;974;52.400;9.818;2022-09-27T08:38:26;10.00;99.90
1948;DHT22;974;52.400;9.818;2022-09-27T08:46:40;10.10;99.90
1948;DHT22;974;52.400;9.818;2022-09-27T08:49:23;10.10;99.90
1948;DHT22;974;52.400;9.818;2022-09-27T08:51:50;10.10;99.90
1948;DHT22;974;52.400;9.818;2022-09-27T08:54:25;10.20;99.90
1948;DHT22;974;52.400;9.818;2022-09-27T08:56:58;10.30;99.90
1948;DHT22;974;52.400;9.818;2022-09-27T08:59:35;10.20;99.90
1948;DHT22;974;52.400;9.818;2022-09-27T09:02:05;10.20;99.90
1948;DHT22;974;52.400;9.818;2022-09-27T09:04:39;10.40;99.90
1948;DHT22;974;52.400;9.818;2022-09-27T09:10:59;10.60;99.90
1948;DHT22;974;52.400;9.818;2022-09-27T09:18:56;10.60;99.90
1948;DHT22;974;52.400;9.818;2022-09-27T09:21:29;10.60;99.90
1948;DHT22;974;52.400;9.818;2022-09-27T09:30:22;11.00;99.90
1948;DHT22;974;52.400;9.818;2022-09-27T09:33:06;10.90;99.90
1948;DHT22;974;52.400;9.818;2022-09-27T09:38:31;11.20;99.90
1948;DHT22;974;52.400;9.818;2022-09-27T09:44:17;11.00;99.90
1948;DHT22;974;52.400;9.818;2022-09-27T09:46:50;11.00;99.90
1948;DHT22;974;52.400;9.818;2022-09-27T09:49:23;11.30;99.90
1948;DHT22;974;52.400;9.818;2022-09-27T09:51:53;11.20;99.90
1948;DHT22;974;52.400;9.818;2022-09-27T09:55:22;11.30;99.90
1948;DHT22;974;52.400;9.818;2022-09-27T09:57:40;11.50;99.90
1948;DHT22;974;52.400;9.818;2022-09-27T10:00:16;11.40;99.90
1948;DHT22;974;52.400;9.818;2022-09-27T10:02:44;11.50;99.90
1948;DHT22;974;52.400;9.818;2022-09-27T10:05:19;11.40;99.90
1948;DHT22;974;52.400;9.818;2022-09-27T10:07:46;11.30;99.90
1948;DHT22;974;52.400;9.818;2022-09-27T10:10:15;11.40;99.90
1948;DHT22;974;52.400;9.818;2022-09-27T10:12:42;11.40;99.90
1948;DHT22;974;52.400;9.818;2022-09-27T10:15:14;11.40;99.90
1948;DHT22;974;52.400;9.818;2022-09-27T10:17:45;11.50;99.90
1948;DHT22;974;52.400;9.818;2022-09-27T10:20:34;11.50;99.90
1948;DHT22;974;52.400;9.818;2022-09-27T10:23:17;11.50;99.90
1948;DHT22;974;52.400;9.818;2022-09-27T10:28:35;11.60;99.90
1948;DHT22;974;52.400;9.818;2022-09-27T10:31:13;11.70;99.90
1948;DHT22;974;52.400;9.818;2022-09-27T10:34:01;11.60;99.90
1948;DHT22;974;52.400;9.818;2022-09-27T10:36:34;11.70;99.90
1948;DHT22;974;52.400;9.818;2022-09-27T10:39:03;11.70;99.90
1948;DHT22;974;52.400;9.818;2022-09-27T10:41:33;11.70;99.90
1948;DHT22;974;52.400;9.818;2022-09-27T10:46:41;11.50;99.90
1948;DHT22;974;52.400;9.818;2022-09-27T10:49:28;11.50;99.90
1948;DHT22;974;52.400;9.818;2022-09-27T10:52:05;11.40;99.90
1948;DHT22;974;52.400;9.818;2022-09-27T10:54:34;11.40;99.90
1948;DHT22;974;52.400;9.818;2022-09-27T10:59:40;11.40;99.90
1948;DHT22;974;52.400;9.818;2022-09-27T11:02:35;11.40;99.90
1948;DHT22;974;52.400;9.818;2022-09-27T11:05:28;11.30;99.90
1948;DHT22;974;52.400;9.818;2022-09-27T11:08:19;11.60;99.90
1948;DHT22;974;52.400;9.818;2022-09-27T11:11:05;11.70;99.90
1948;DHT22;974;52.400;9.818;2022-09-27T11:13:32;11.90;99.90
1948;DHT22;974;52.400;9.818;2022-09-27T11:19:12;12.60;99.90
1948;DHT22;974;52.400;9.818;2022-09-27T11:25:14;12.60;99.90
1948;DHT22;974;52.400;9.818;2022-09-27T11:30:15;12.80;99.90
1948;DHT22;974;52.400;9.818;2022-09-27T11:35:32;12.60;99.90
1948;DHT22;974;52.400;9.818;2022-09-27T11:38:29;12.60;99.90
1948;DHT22;974;52.400;9.818;2022-09-27T11:46:35;12.00;99.90
1948;DHT22;974;52.400;9.818;2022-09-27T11:51:57;11.70;99.90
1948;DHT22;974;52.400;9.818;2022-09-27T11:57:29;11.20;99.90
1948;DHT22;974;52.400;9.818;2022-09-27T12:10:27;10.90;99.90
1948;DHT22;974;52.400;9.818;2022-09-27T12:12:55;10.80;99.90
1948;DHT22;974;52.400;9.818;2022-09-27T12:15:26;10.70;99.90
1948;DHT22;974;52.400;9.818;2022-09-27T12:20:47;10.90;99.90
1948;DHT22;974;52.400;9.818;2022-09-27T12:23:20;10.80;99.90
1948;DHT22;974;52.400;9.818;2022-09-27T12:25:49;10.70;99.90
1948;DHT22;974;52.400;9.818;2022-09-27T12:28:31;10.60;99.90
1948;DHT22;974;52.400;9.818;2022-09-27T12:31:11;10.60;99.90
1948;DHT22;974;52.400;9.818;2022-09-27T12:36:17;10.40;99.90
1948;DHT22;974;52.400;9.818;2022-09-27T12:39:09;10.20;99.90
1948;DHT22;974;52.400;9.818;2022-09-27T12:41:43;10.20;99.90
1948;DHT22;974;52.400;9.818;2022-09-27T12:44:11;10.40;99.90
1948;DHT22;974;52.400;9.818;2022-09-27T12:49:22;10.20;99.90
1948;DHT22;974;52.400;9.818;2022-09-27T12:51:58;10.10;99.90
1948;DHT22;974;52.400;9.818;2022-09-27T12:55:02;10.00;99.90
1948;DHT22;974;52.400;9.818;2022-09-27T12:57:33;10.00;99.90
1948;DHT22;974;52.400;9.818;2022-09-27T13:00:17;10.00;99.90
1948;DHT22;974;52.400;9.818;2022-09-27T13:13:33;9.90;99.90
1948;DHT22;974;52.400;9.818;2022-09-27T13:16:01;10.10;99.90
1948;DHT22;974;52.400;9.818;2022-09-27T13:20:54;10.00;99.90
1948;DHT22;974;52.400;9.818;2022-09-27T13:25:55;10.10;99.90
1948;DHT22;974;52.400;9.818;2022-09-27T13:33:47;10.20;99.90
1948;DHT22;974;52.400;9.818;2022-09-27T13:41:38;10.30;99.90
1948;DHT22;974;52.400;9.818;2022-09-27T13:44:42;10.50;99.90
1948;DHT22;974;52.400;9.818;2022-09-27T13:47:33;10.60;99.90
1948;DHT22;974;52.400;9.818;2022-09-27T13:50:23;10.70;99.90
1948;DHT22;974;52.400;9.818;2022-09-27T13:55:46;10.60;99.90
1948;DHT22;974;52.400;9.818;2022-09-27T14:00:52;10.70;99.90
1948;DHT22;974;52.400;9.818;2022-09-27T14:03:30;10.80;99.90
1948;DHT22;974;52.400;9.818;2022-09-27T14:05:57;10.90;99.90
1948;DHT22;974;52.400;9.818;2022-09-27T14:08:36;11.00;99.90
1948;DHT22;974;52.400;9.818;2022-09-27T14:11:15;10.80;99.90
1948;DHT22;974;52.400;9.818;2022-09-27T14:13:44;11.10;99.90
1948;DHT22;974;52.400;9.818;2022-09-27T14:16:15;11.30;99.90
1948;DHT22;974;52.400;9.818;2022-09-27T14:18:50;11.40;99.90
1948;DHT22;974;52.400;9.818;2022-09-27T14:21:33;11.30;99.90
1948;DHT22;974;52.400;9.818;2022-09-27T14:24:20;11.40;99.90
1948;DHT22;974;52.400;9.818;2022-09-27T14:26:47;11.40;99.90
1948;DHT22;974;52.400;9.818;2022-09-27T14:29:20;11.50;99.90
1948;DHT22;974;52.400;9.818;2022-09-27T14:31:47;11.40;99.90
1948;DHT22;974;52.400;9.818;2022-09-27T14:34:27;11.30;99.90
1948;DHT22;974;52.400;9.818;2022-09-27T14:36:52;11.30;99.90
1948;DHT22;974;52.400;9.818;2022-09-27T14:40:05;11.40;99.90
1948;DHT22;974;52.400;9.818;2022-09-27T14:42:36;11.20;99.90
1948;DHT22;974;52.400;9.818;2022-09-27T14:45:23;11.10;99.90
1948;DHT22;974;52.400;9.818;2022-09-27T14:47:51;11.10;99.90
1948;DHT22;974;52.400;9.818;2022-09-27T14:50:25;11.00;99.90
1948;DHT22;974;52.400;9.818;2022-09-27T14:52:53;10.80;99.90
1948;DHT22;974;52.400;9.818;2022-09-27T14:55:23;10.60;99.90
1948;DHT22;974;52.400;9.818;2022-09-27T14:57:56;10.40;99.90
1948;DHT22;974;52.400;9.818;2022-09-27T15:00:33;10.30;99.90
1948;DHT22;974;52.400;9.818;2022-09-27T15:03:03;10.00;99.90
1948;DHT22;974;52.400;9.818;2022-09-27T15:05:33;10.00;99.90
1948;DHT22;974;52.400;9.818;2022-09-27T15:08:02;10.00;99.90
1948;DHT22;974;52.400;9.818;2022-09-27T15:10:32;9.70;99.90
1948;DHT22;974;52.400;9.818;2022-09-27T15:12:59;9.70;99.90
1948;DHT22;974;52.400;9.818;2022-09-27T15:15:28;9.70;99.90
1948;DHT22;974;52.400;9.818;2022-09-27T15:17:56;9.70;99.90
1948;DHT22;974;52.400;9.818;2022-09-27T15:22:58;9.50;99.90
1948;DHT22;974;52.400;9.818;2022-09-27T15:25:33;9.60;99.90
1948;DHT22;974;52.400;9.818;2022-09-27T15:28:05;9.50;99.90
1948;DHT22;974;52.400;9.818;2022-09-27T15:30:38;9.60;99.90
1948;DHT22;974;52.400;9.818;2022-09-27T15:33:05;9.60;99.90
1948;DHT22;974;52.400;9.818;2022-09-27T15:35:33;9.70;99.90
1948;DHT22;974;52.400;9.818;2022-09-27T15:38:12;9.80;99.90
1948;DHT22;974;52.400;9.818;2022-09-27T15:43:28;9.80;99.90
1948;DHT22;974;52.400;9.818;2022-09-27T15:45:56;9.80;99.90
1948;DHT22;974;52.400;9.818;2022-09-27T15:48:22;9.90;99.90
1948;DHT22;974;52.400;9.818;2022-09-27T15:50:48;9.90;99.90
1948;DHT22;974;52.400;9.818;2022-09-27T15:56:03;9.90;99.90
1948;DHT22;974;52.400;9.818;2022-09-27T15:58:31;9.80;99.90
1948;DHT22;974;52.400;9.818;2022-09-27T16:00:58;9.70;99.90
1948;DHT22;974;52.400;9.818;2022-09-27T16:03:27;9.70;99.90
1948;DHT22;974;52.400;9.818;2022-09-27T16:05:54;9.80;99.90
1948;DHT22;974;52.400;9.818;2022-09-27T16:08:21;9.70;99.90
1948;DHT22;974;52.400;9.818;2022-09-27T16:10:52;9.80;99.90
1948;DHT22;974;52.400;9.818;2022-09-27T16:13:19;9.90;99.90
1948;DHT22;974;52.400;9.818;2022-09-27T16:15:46;9.90;99.90
1948;DHT22;974;52.400;9.818;2022-09-27T16:18:11;9.70;99.90
1948;DHT22;974;52.400;9.818;2022-09-27T16:20:37;9.80;99.90
1948;DHT22;974;52.400;9.818;2022-09-27T16:23:03;9.70;99.90
1948;DHT22;974;52.400;9.818;2022-09-27T16:25:29;9.80;99.90
1948;DHT22;974;52.400;9.818;2022-09-27T16:27:59;9.80;99.90
1948;DHT22;974;52.400;9.818;2022-09-27T16:30:25;9.80;99.90
1948;DHT22;974;52.400;9.818;2022-09-27T16:32:51;9.80;99.90
1948;DHT22;974;52.400;9.818;2022-09-27T16:35:19;9.80;99.90
1948;DHT22;974;52.400;9.818;2022-09-27T16:37:44;9.80;99.90
1948;DHT22;974;52.400;9.818;2022-09-27T16:40:12;9.80;99.90
1948;DHT22;974;52.400;9.818;2022-09-27T16:42:38;9.90;99.90
1948;DHT22;974;52.400;9.818;2022-09-27T16:45:05;9.80;99.90
1948;DHT22;974;52.400;9.818;2022-09-27T16:47:31;9.80;99.90
1948;DHT22;974;52.400;9.818;2022-09-27T16:49:57;9.70;99.90
1948;DHT22;974;52.400;9.818;2022-09-27T16:52:41;9.70;99.90
1948;DHT22;974;52.400;9.818;2022-09-27T16:55:12;9.70;99.90
1948;DHT22;974;52.400;9.818;2022-09-27T16:57:37;9.60;99.90
1948;DHT22;974;52.400;9.818;2022-09-27T17:00:05;9.70;99.90
1948;DHT22;974;52.400;9.818;2022-09-27T17:02:30;9.50;99.90
1948;DHT22;974;52.400;9.818;2022-09-27T17:04:57;9.50;99.90
1948;DHT22;974;52.400;9.818;2022-09-27T17:07:22;9.50;99.90
1948;DHT22;974;52.400;9.818;2022-09-27T17:09:48;9.70;99.90
1948;DHT22;974;52.400;9.818;2022-09-27T17:12:14;9.60;99.90
1948;DHT22;974;52.400;9.818;2022-09-27T17:14:40;9.50;99.90
1948;DHT22;974;52.400;9.818;2022-09-27T17:17:06;9.60;99.90
1948;DHT22;974;52.400;9.818;2022-09-27T17:19:32;9.50;99.90
1948;DHT22;974;52.400;9.818;2022-09-27T17:21:58;9.50;99.90
1948;DHT22;974;52.400;9.818;2022-09-27T17:24:24;9.50;99.90
1948;DHT22;974;52.400;9.818;2022-09-27T17:26:50;9.50;99.90
1948;DHT22;974;52.400;9.818;2022-09-27T17:29:16;9.40;99.90
1948;DHT22;974;52.400;9.818;2022-09-27T17:31:42;9.40;99.90
1948;DHT22;974;52.400;9.818;2022-09-27T17:34:10;9.50;99.90
1948;DHT22;974;52.400;9.818;2022-09-27T17:36:40;9.40;99.90
1948;DHT22;974;52.400;9.818;2022-09-27T17:39:08;9.50;99.90
1948;DHT22;974;52.400;9.818;2022-09-27T17:41:35;9.50;99.90
1948;DHT22;974;52.400;9.818;2022-09-27T17:44:03;9.60;99.90
1948;DHT22;974;52.400;9.818;2022-09-27T17:46:31;9.60;99.90
1948;DHT22;974;52.400;9.818;2022-09-27T17:48:58;9.50;99.90
1948;DHT22;974;52.400;9.818;2022-09-27T17:51:46;9.60;99.90
1948;DHT22;974;52.400;9.818;2022-09-27T17:54:12;9.60;99.90
1948;DHT22;974;52.400;9.818;2022-09-27T17:56:39;9.50;99.90
1948;DHT22;974;52.400;9.818;2022-09-27T17:59:06;9.40;99.90
1948;DHT22;974;52.400;9.818;2022-09-27T18:01:33;9.50;99.90
1948;DHT22;974;52.400;9.818;2022-09-27T18:03:59;9.40;99.90
1948;DHT22;974;52.400;9.818;2022-09-27T18:06:26;9.40;99.90
1948;DHT22;974;52.400;9.818;2022-09-27T18:08:53;9.40;99.90
1948;DHT22;974;52.400;9.818;2022-09-27T18:11:21;9.50;99.90
1948;DHT22;974;52.400;9.818;2022-09-27T18:13:52;9.50;99.90
1948;DHT22;974;52.400;9.818;2022-09-27T18:16:18;9.50;99.90
1948;DHT22;974;52.400;9.818;2022-09-27T18:18:45;9.50;99.90
1948;DHT22;974;52.400;9.818;2022-09-27T18:21:17;9.50;99.90
1948;DHT22;974;52.400;9.818;2022-09-27T18:23:47;9.60;99.90
1948;DHT22;974;52.400;9.818;2022-09-27T18:26:13;9.50;99.90
1948;DHT22;974;52.400;9.818;2022-09-27T18:28:40;9.60;99.90
1948;DHT22;974;52.400;9.818;2022-09-27T18:31:11;9.60;99.90
1948;DHT22;974;52.400;9.818;2022-09-27T18:33:38;9.60;99.90
1948;DHT22;974;52.400;9.818;2022-09-27T18:36:06;9.60;99.90
1948;DHT22;974;52.400;9.818;2022-09-27T18:38:34;9.60;99.90
1948;DHT22;974;52.400;9.818;2022-09-27T18:41:07;9.60;99.90
1948;DHT22;974;52.400;9.818;2022-09-27T18:43:33;9.70;99.90
1948;DHT22;974;52.400;9.818;2022-09-27T18:46:07;9.60;99.90
1948;DHT22;974;52.400;9.818;2022-09-27T18:48:34;9.50;99.90
1948;DHT22;974;52.400;9.818;2022-09-27T18:51:15;9.60;99.90
1948;DHT22;974;52.400;9.818;2022-09-27T18:53:42;9.60;99.90
1948;DHT22;974;52.400;9.818;2022-09-27T18:56:12;9.50;99.90
1948;DHT22;974;52.400;9.818;2022-09-27T18:58:38;9.50;99.90
1948;DHT22;974;52.400;9.818;2022-09-27T19:01:08;9.40;99.90
1948;DHT22;974;52.400;9.818;2022-09-27T19:03:34;9.40;99.90
1948;DHT22;974;52.400;9.818;2022-09-27T19:06:05;9.50;99.90
1948;DHT22;974;52.400;9.818;2022-09-27T19:08:31;9.50;99.90
1948;DHT22;974;52.400;9.818;2022-09-27T19:11:07;9.60;99.90
1948;DHT22;974;52.400;9.818;2022-09-27T19:13:33;9.60;99.90